Time;durP1;ratioP1;P1;durP2;ratioP2;P2;SDS_P1;SDS_P2;PMS_P1;PMS_P2;Temp;Humidity;BMP_temperature;BMP_pressure;BME280_temperature;BME280_humidity;BME280_pressure;Samples;Min_cycle;Max_cycle;Signal;HPM_P1;HPM_P2
2022/07/22 00:00:23;;;;;;;4.30;2.47;;;;;;;24.16;54.15;99649.88;5048362;28;20047;-87
2022/07/22 00:02:48;;;;;;;2.60;1.80;;;;;;;24.06;53.85;99629.97;5060683;28;20071;-87
2022/07/22 00:05:14;;;;;;;2.60;1.83;;;;;;;24.02;53.86;99640.09;5067516;28;20032;-86
2022/07/22 00:07:39;;;;;;;2.53;1.60;;;;;;;23.93;54.08;99617.38;5056009;28;20158;-87
2022/07/22 00:10:07;;;;;;;4.07;1.70;;;;;;;23.82;54.17;99613.69;5046785;28;20040;-87
2022/07/22 00:12:33;;;;;;;2.90;2.20;;;;;;;24.20;53.95;99664.84;5050301;28;20032;-87
2022/07/22 00:14:59;;;;;;;4.68;2.47;;;;;;;23.86;54.65;99647.56;5067454;28;20037;-87
2022/07/22 00:17:24;;;;;;;4.05;2.08;;;;;;;23.82;54.79;99636.13;5067023;28;20102;-86
2022/07/22 00:19:50;;;;;;;3.42;1.90;;;;;;;23.73;54.81;99626.84;5053699;28;20025;-87
2022/07/22 00:22:16;;;;;;;3.22;1.83;;;;;;;23.68;55.10;99644.28;5046652;28;20111;-87
2022/07/22 00:24:41;;;;;;;4.38;2.08;;;;;;;23.70;55.34;99669.28;5066596;28;20039;-87
2022/07/22 00:27:06;;;;;;;2.60;1.67;;;;;;;23.81;55.38;99664.00;5049138;28;20040;-87
2022/07/22 00:29:32;;;;;;;3.97;1.83;;;;;;;23.77;55.75;99674.16;5063948;28;20036;-87
2022/07/22 00:31:57;;;;;;;3.95;2.13;;;;;;;23.58;55.74;99639.53;5046911;28;20158;-87
2022/07/22 00:34:23;;;;;;;3.38;1.67;;;;;;;23.62;55.72;99640.22;5064294;28;20117;-88
2022/07/22 00:36:48;;;;;;;4.30;2.38;;;;;;;23.99;55.42;99685.25;5064869;28;20039;-86
2022/07/22 00:39:15;;;;;;;4.22;1.83;;;;;;;23.78;55.53;99657.00;5048630;28;20111;-87
2022/07/22 00:41:40;;;;;;;2.53;1.77;;;;;;;23.83;55.67;99686.28;5066875;28;20070;-87
2022/07/22 00:44:08;;;;;;;2.40;1.88;;;;;;;23.81;55.81;99684.69;5033565;28;20510;-87
2022/07/22 00:46:36;;;;;;;1.88;1.58;;;;;;;23.70;55.96;99685.44;5051426;28;20536;-86
2022/07/22 00:49:04;;;;;;;4.32;2.47;;;;;;;23.56;56.37;99681.88;5066770;28;20032;-87
2022/07/22 00:51:30;;;;;;;3.20;1.90;;;;;;;23.41;56.13;99648.78;5066511;28;20048;-86
2022/07/22 00:53:57;;;;;;;4.85;3.38;;;;;;;23.31;56.10;99650.41;5066115;28;20093;-86
2022/07/22 00:56:24;;;;;;;5.03;2.42;;;;;;;23.03;56.45;99636.13;5055561;28;20029;-86
2022/07/22 00:58:51;;;;;;;3.78;2.15;;;;;;;22.97;57.01;99658.06;5066806;28;20024;-87
2022/07/22 01:01:17;;;;;;;4.55;2.80;;;;;;;23.08;56.90;99665.41;5066435;28;20119;-87
2022/07/22 01:03:43;;;;;;;3.03;2.13;;;;;;;22.82;57.28;99646.50;5059111;28;20571;-85
2022/07/22 01:06:09;;;;;;;3.80;1.90;;;;;;;23.08;57.11;99681.53;5030790;28;20040;-85
2022/07/22 01:08:35;;;;;;;8.38;2.20;;;;;;;22.89;57.38;99655.00;5066365;28;20044;-85
2022/07/22 01:11:12;;;;;;;3.80;2.15;;;;;;;22.75;57.64;99637.09;5050676;28;20415;-86
2022/07/22 01:13:39;;;;;;;4.00;2.25;;;;;;;22.55;57.74;99642.94;5035570;28;20434;-86
2022/07/22 01:16:06;;;;;;;2.92;2.28;;;;;;;22.59;57.45;99669.50;5064723;28;20430;-86
2022/07/22 01:18:32;;;;;;;3.67;1.92;;;;;;;22.23;58.52;99657.47;5046515;28;20029;-85
2022/07/22 01:20:58;;;;;;;3.38;2.33;;;;;;;22.08;59.44;99679.94;5046449;28;20495;-86
2022/07/22 01:23:24;;;;;;;5.82;2.20;;;;;;;22.10;59.63;99694.13;5055849;28;20456;-86
2022/07/22 01:25:49;;;;;;;4.15;2.42;;;;;;;22.06;59.31;99687.22;5050588;28;20041;-85
2022/07/22 01:28:15;;;;;;;3.85;2.67;;;;;;;21.79;59.97;99655.75;5046187;28;20758;-85
2022/07/22 01:30:40;;;;;;;4.13;1.95;;;;;;;22.07;59.59;99684.44;5046500;28;20495;-86
2022/07/22 01:33:06;;;;;;;4.03;2.85;;;;;;;21.96;59.70;99682.41;5059566;28;20032;-86
2022/07/22 01:35:31;;;;;;;4.32;2.80;;;;;;;22.19;59.49;99693.53;5035888;28;20469;-85
2022/07/22 01:37:57;;;;;;;3.40;1.95;;;;;;;22.30;59.10;99680.31;5054571;28;20029;-86
2022/07/22 01:40:24;;;;;;;4.82;2.65;;;;;;;22.31;58.68;99660.56;5046645;28;20029;-86
2022/07/22 01:42:49;;;;;;;4.13;2.17;;;;;;;22.52;58.09;99658.31;5053934;28;20086;-84
2022/07/22 01:45:15;;;;;;;4.60;3.13;;;;;;;22.56;58.11;99685.84;5070160;28;20029;-84
2022/07/22 01:47:40;;;;;;;4.40;2.65;;;;;;;22.64;58.03;99683.50;5066871;28;20542;-87
2022/07/22 01:50:09;;;;;;;3.55;2.03;;;;;;;22.72;58.01;99693.75;5049336;28;20029;-86
2022/07/22 01:52:35;;;;;;;4.75;2.65;;;;;;;22.38;58.87;99685.19;5049539;28;20048;-84
2022/07/22 01:55:00;;;;;;;3.72;2.03;;;;;;;22.11;59.18;99639.47;5049576;28;20033;-86
2022/07/22 01:57:26;;;;;;;3.55;1.95;;;;;;;22.24;58.89;99661.03;5049594;28;20029;-86
2022/07/22 01:59:51;;;;;;;2.55;1.73;;;;;;;22.15;59.03;99649.91;5049647;28;20867;-86
2022/07/22 02:02:17;;;;;;;1.95;1.50;;;;;;;22.50;58.78;99688.94;5049494;28;20029;-84
2022/07/22 02:04:42;;;;;;;3.22;2.00;;;;;;;22.35;58.71;99664.78;5048742;28;20029;-85
2022/07/22 02:07:08;;;;;;;2.83;2.10;;;;;;;22.61;58.30;99681.03;5050015;28;20037;-85
2022/07/22 02:09:33;;;;;;;3.33;2.13;;;;;;;22.57;58.22;99671.47;5054661;28;20071;-85
2022/07/22 02:11:59;;;;;;;5.05;3.42;;;;;;;22.51;58.60;99685.28;5050363;28;20024;-84
2022/07/22 02:14:26;;;;;;;3.33;2.55;;;;;;;22.29;58.61;99666.94;5055786;28;20557;-85
2022/07/22 02:16:51;;;;;;;3.92;2.17;;;;;;;22.36;58.65;99665.63;5049695;28;20033;-85
2022/07/22 02:19:17;;;;;;;3.47;2.05;;;;;;;22.40;59.01;99685.97;5049116;28;20251;-85
2022/07/22 02:21:42;;;;;;;4.50;2.42;;;;;;;22.10;59.38;99649.31;5062799;28;20154;-85
2022/07/22 02:24:08;;;;;;;4.72;2.42;;;;;;;22.22;60.02;99671.84;5057428;28;20064;-86
2022/07/22 02:26:34;;;;;;;3.15;2.13;;;;;;;22.25;59.79;99668.13;5069015;28;20036;-87
2022/07/22 02:28:59;;;;;;;6.63;3.05;;;;;;;22.10;60.06;99659.22;5057676;28;20040;-86
2022/07/22 02:31:25;;;;;;;4.38;2.47;;;;;;;21.97;60.44;99646.56;5049239;28;20033;-84
2022/07/22 02:33:51;;;;;;;3.83;2.47;;;;;;;21.90;60.57;99650.56;5057261;28;20033;-85
2022/07/22 02:36:17;;;;;;;3.00;2.03;;;;;;;21.85;60.74;99660.75;5050461;28;20128;-85
2022/07/22 02:38:42;;;;;;;5.68;3.38;;;;;;;21.68;60.61;99637.63;5049310;28;20154;-85
2022/07/22 02:41:08;;;;;;;4.20;2.30;;;;;;;21.85;60.74;99657.22;5049127;28;20036;-84
2022/07/22 02:43:33;;;;;;;10.50;2.90;;;;;;;21.82;60.30;99643.00;5048084;28;20056;-85
2022/07/22 02:45:59;;;;;;;5.38;2.47;;;;;;;22.00;60.52;99662.47;5049262;28;20114;-86
2022/07/22 02:48:24;;;;;;;4.50;2.15;;;;;;;22.10;60.23;99675.31;5065398;28;20028;-85
2022/07/22 02:50:50;;;;;;;4.63;3.10;;;;;;;21.63;60.86;99637.06;5052778;28;20842;-84
2022/07/22 02:53:15;;;;;;;3.65;2.30;;;;;;;21.90;60.86;99671.22;5048406;28;20190;-85
2022/07/22 02:55:41;;;;;;;4.30;2.58;;;;;;;21.72;60.58;99646.34;5048706;28;20434;-85
2022/07/22 02:58:08;;;;;;;5.65;3.22;;;;;;;21.92;60.80;99658.53;5048630;28;20043;-86
2022/07/22 03:00:37;;;;;;;5.20;2.72;;;;;;;21.90;60.94;99664.00;5060892;28;20078;-86
2022/07/22 03:03:03;;;;;;;2.60;1.95;;;;;;;21.81;60.71;99659.22;5067714;28;20041;-85
2022/07/22 03:05:28;;;;;;;3.53;2.50;;;;;;;21.96;60.76;99658.25;5065525;28;20043;-84
2022/07/22 03:07:54;;;;;;;3.42;2.50;;;;;;;21.76;61.23;99637.16;5048712;28;20055;-85
2022/07/22 03:10:19;;;;;;;4.25;2.55;;;;;;;21.50;61.37;99618.16;5062245;28;20378;-86
2022/07/22 03:12:45;;;;;;;4.13;2.28;;;;;;;21.60;61.21;99624.69;5068538;28;20033;-86
2022/07/22 03:15:10;;;;;;;3.33;2.30;;;;;;;21.77;61.54;99657.69;5050618;28;20124;-86
2022/07/22 03:17:37;;;;;;;3.67;2.42;;;;;;;21.93;60.95;99677.25;5047859;28;20036;-87
2022/07/22 03:20:07;;;;;;;4.78;2.95;;;;;;;21.62;61.24;99620.09;5065614;28;20588;-85
2022/07/22 03:22:33;;;;;;;2.58;1.85;;;;;;;21.89;61.00;99669.47;5068381;28;20043;-85
2022/07/22 03:24:59;;;;;;;4.43;2.63;;;;;;;21.70;61.21;99649.13;5067595;28;20040;-86
2022/07/22 03:27:25;;;;;;;6.95;3.47;;;;;;;21.63;62.33;99669.28;5067746;28;20040;-86
2022/07/22 03:29:50;;;;;;;5.00;2.75;;;;;;;21.80;61.99;99678.97;5052354;28;20059;-87
2022/07/22 03:32:16;;;;;;;5.63;3.08;;;;;;;21.74;61.47;99644.47;5047901;28;20380;-85
2022/07/22 03:34:42;;;;;;;4.47;3.05;;;;;;;21.99;61.47;99676.00;5048391;28;20053;-86
2022/07/22 03:37:07;;;;;;;6.13;3.58;;;;;;;21.68;62.03;99655.56;5044123;28;20048;-87
2022/07/22 03:39:33;;;;;;;8.25;4.53;;;;;;;21.94;62.10;99673.59;5057178;28;20094;-87
2022/07/22 03:41:59;;;;;;;6.80;2.92;;;;;;;21.96;62.26;99662.75;5068100;28;20119;-86
2022/07/22 03:44:24;;;;;;;4.40;3.33;;;;;;;21.98;62.51;99659.03;5067604;28;20036;-86
2022/07/22 03:46:50;;;;;;;4.55;2.78;;;;;;;22.04;62.69;99656.91;5067817;28;20452;-86
2022/07/22 03:49:15;;;;;;;5.38;2.28;;;;;;;21.99;62.74;99647.31;5068160;28;20048;-86
2022/07/22 03:51:41;;;;;;;7.15;3.47;;;;;;;22.23;62.40;99667.34;5049566;28;20052;-86
2022/07/22 03:54:06;;;;;;;7.28;3.47;;;;;;;22.32;62.90;99683.78;5058378;28;20036;-86
2022/07/22 03:56:32;;;;;;;6.78;4.20;;;;;;;22.25;63.35;99678.88;5086339;28;20077;-85
2022/07/22 03:58:58;;;;;;;4.32;2.40;;;;;;;22.23;63.77;99667.34;5087350;28;20463;-85
2022/07/22 04:01:23;;;;;;;5.18;3.05;;;;;;;22.11;63.87;99650.19;5069520;28;20616;-85
2022/07/22 04:03:49;;;;;;;3.85;2.63;;;;;;;22.28;64.52;99676.84;5066840;28;20479;-85
2022/07/22 04:06:15;;;;;;;5.10;3.80;;;;;;;22.37;64.50;99696.03;5058043;28;20503;-85
2022/07/22 04:08:41;;;;;;;5.03;2.95;;;;;;;22.53;63.98;99668.09;5030301;28;20715;-85
2022/07/22 04:11:06;;;;;;;5.30;3.25;;;;;;;22.64;63.28;99669.22;5051216;28;20041;-85
2022/07/22 04:13:32;;;;;;;5.00;3.33;;;;;;;23.00;62.85;99708.06;5052434;28;20082;-86
2022/07/22 04:15:58;;;;;;;8.05;4.57;;;;;;;23.00;61.68;99670.41;5066451;28;20494;-84
2022/07/22 04:18:23;;;;;;;5.15;3.25;;;;;;;23.25;60.74;99677.75;5067550;28;20116;-89
2022/07/22 04:20:49;;;;;;;8.20;4.00;;;;;;;23.41;59.34;99689.16;5058769;28;20056;-87
2022/07/22 04:23:15;;;;;;;3.95;3.00;;;;;;;22.86;58.39;99652.50;5055722;28;20039;-91
2022/07/22 04:25:40;;;;;;;7.13;4.80;;;;;;;23.17;57.58;99691.72;5063153;28;20028;-85
2022/07/22 04:28:06;;;;;;;6.45;3.53;;;;;;;23.06;57.27;99670.88;5050416;28;20037;-91
2022/07/22 04:30:32;;;;;;;5.50;3.65;;;;;;;23.07;56.51;99675.28;5060702;28;20047;-87
2022/07/22 04:32:58;;;;;;;7.60;5.07;;;;;;;23.14;56.73;99674.91;5066941;28;20469;-85
2022/07/22 04:35:24;;;;;;;5.00;2.80;;;;;;;23.36;57.16;99672.47;5058954;28;20029;-85
2022/07/22 04:37:49;;;;;;;6.93;3.92;;;;;;;23.71;57.11;99671.88;5068745;28;20438;-86
2022/07/22 04:40:15;;;;;;;8.73;4.47;;;;;;;23.80;56.99;99707.19;5059227;28;20037;-84
2022/07/22 04:42:41;;;;;;;8.07;4.30;;;;;;;23.80;55.97;99693.75;5053517;28;20117;-85
2022/07/22 04:45:06;;;;;;;10.07;4.72;;;;;;;23.80;55.76;99699.97;5046821;28;20145;-84
2022/07/22 04:47:32;;;;;;;6.13;4.50;;;;;;;23.88;55.65;99672.53;5047927;28;20037;-85
2022/07/22 04:49:57;;;;;;;5.57;4.15;;;;;;;24.06;54.97;99705.41;5046734;28;20047;-86
2022/07/22 04:52:23;;;;;;;6.82;4.47;;;;;;;24.13;54.89;99712.09;5046993;28;20106;-85
2022/07/22 04:54:48;;;;;;;7.78;4.38;;;;;;;24.12;54.49;99689.66;5047056;28;20090;-85
2022/07/22 04:57:15;;;;;;;11.82;6.28;;;;;;;23.96;54.83;99702.50;5046178;28;20502;-85
2022/07/22 04:59:40;;;;;;;5.97;4.47;;;;;;;24.04;55.41;99689.34;5046344;28;20395;-86
2022/07/22 05:02:07;;;;;;;9.25;4.50;;;;;;;24.30;54.49;99659.66;5048704;28;20067;-87
2022/07/22 05:04:34;;;;;;;9.73;3.75;;;;;;;24.56;53.89;99679.31;5048587;28;20094;-86
2022/07/22 05:06:59;;;;;;;4.70;3.03;;;;;;;24.46;53.61;99702.53;5028451;28;20127;-84
2022/07/22 05:09:25;;;;;;;4.75;3.55;;;;;;;24.87;53.56;99712.16;5028777;28;20112;-85
2022/07/22 05:11:50;;;;;;;7.43;5.35;;;;;;;25.02;52.80;99689.41;5029055;28;20136;-86
2022/07/22 05:14:16;;;;;;;5.97;4.07;;;;;;;25.10;52.26;99666.38;5047394;28;20029;-85
2022/07/22 05:16:41;;;;;;;5.07;4.22;;;;;;;25.35;51.79;99695.09;5051140;28;20503;-85
2022/07/22 05:19:06;;;;;;;6.43;4.35;;;;;;;25.67;51.32;99689.03;5033003;28;20028;-84
2022/07/22 05:21:33;;;;;;;8.45;5.88;;;;;;;25.86;50.18;99700.13;5051063;28;20047;-85
2022/07/22 05:23:58;;;;;;;9.65;5.47;;;;;;;25.83;50.33;99705.75;5050188;28;20067;-84
2022/07/22 05:26:24;;;;;;;7.75;4.03;;;;;;;26.12;50.13;99702.63;5058335;28;20111;-85
2022/07/22 05:28:50;;;;;;;7.22;5.35;;;;;;;25.94;50.91;99691.41;5060696;28;20028;-84
2022/07/22 05:31:15;;;;;;;7.32;5.15;;;;;;;25.59;51.31;99691.47;5049672;28;20035;-84
2022/07/22 05:33:41;;;;;;;5.88;3.67;;;;;;;25.97;51.16;99674.09;5053846;28;20744;-88
2022/07/22 05:36:09;;;;;;;6.82;4.18;;;;;;;26.33;49.30;99696.47;5070664;28;20478;-84
2022/07/22 05:38:35;;;;;;;6.55;3.83;;;;;;;26.52;48.92;99683.16;5064191;28;20045;-85
2022/07/22 05:41:01;;;;;;;6.88;4.20;;;;;;;26.82;47.59;99681.66;5051434;28;20037;-86
2022/07/22 05:43:27;;;;;;;6.10;5.03;;;;;;;26.98;47.72;99668.56;5016327;28;20041;-86
2022/07/22 05:45:53;;;;;;;7.80;5.60;;;;;;;27.21;47.80;99654.06;5050731;28;20029;-87
2022/07/22 05:48:19;;;;;;;6.88;5.10;;;;;;;27.65;47.45;99665.66;5050689;28;20028;-88
2022/07/22 05:50:44;;;;;;;11.15;5.05;;;;;;;27.73;45.24;99637.88;5070554;28;20028;-88
2022/07/22 05:53:10;;;;;;;6.80;4.53;;;;;;;27.82;45.90;99648.78;5070168;28;20394;-90
2022/07/22 05:55:36;;;;;;;6.18;5.00;;;;;;;27.80;46.02;99671.59;5070685;28;20037;-89
2022/07/22 05:58:01;;;;;;;11.43;5.50;;;;;;;28.14;45.67;99660.50;5069311;28;20532;-88
2022/07/22 06:00:27;;;;;;;6.38;4.20;;;;;;;28.22;43.70;99661.56;5053507;28;20032;-87
2022/07/22 06:02:52;;;;;;;6.30;4.00;;;;;;;28.52;43.98;99676.06;5071933;28;20054;-88
2022/07/22 06:05:19;;;;;;;6.28;4.53;;;;;;;28.72;43.18;99665.28;5070064;28;20431;-87
2022/07/22 06:07:45;;;;;;;8.82;5.00;;;;;;;28.65;44.05;99666.84;5069586;28;20078;-88
2022/07/22 06:10:10;;;;;;;6.28;3.97;;;;;;;28.99;42.78;99658.28;5069668;28;20032;-89
2022/07/22 06:12:36;;;;;;;6.45;4.45;;;;;;;28.98;44.19;99653.84;5071294;28;20153;-89
2022/07/22 06:15:03;;;;;;;9.05;5.40;;;;;;;28.45;45.02;99665.91;5072956;28;20024;-89
2022/07/22 06:17:29;;;;;;;7.32;4.63;;;;;;;28.70;43.02;99634.69;5070900;28;20025;-88
2022/07/22 06:19:54;;;;;;;7.32;4.80;;;;;;;29.09;42.12;99648.31;5069505;28;20050;-88
2022/07/22 06:22:20;;;;;;;8.98;5.63;;;;;;;29.64;42.22;99659.41;5070859;28;20033;-88
2022/07/22 06:24:45;;;;;;;6.57;4.13;;;;;;;29.31;41.40;99658.03;5070138;28;20028;-88
2022/07/22 06:27:12;;;;;;;8.68;4.43;;;;;;;29.50;41.15;99678.03;5069449;28;20059;-92
2022/07/22 06:29:37;;;;;;;8.77;3.90;;;;;;;29.73;40.60;99657.66;5070558;28;20031;-87
2022/07/22 06:32:03;;;;;;;5.40;4.07;;;;;;;29.91;40.19;99629.75;5070943;28;20033;-86
2022/07/22 06:34:29;;;;;;;7.45;4.22;;;;;;;30.27;39.87;99648.91;5069099;28;20466;-87
2022/07/22 06:36:55;;;;;;;8.00;4.47;;;;;;;29.77;40.97;99663.66;5069986;28;20032;-88
2022/07/22 06:39:21;;;;;;;6.28;3.38;;;;;;;29.94;40.32;99659.34;5069727;28;20043;-87
2022/07/22 06:41:46;;;;;;;6.07;3.28;;;;;;;30.55;40.26;99657.06;5069597;28;20067;-87
2022/07/22 06:44:12;;;;;;;6.50;3.80;;;;;;;31.15;38.21;99645.63;5070023;28;20093;-87
2022/07/22 06:46:38;;;;;;;6.88;3.30;;;;;;;30.56;37.84;99665.09;5069744;28;20032;-88
2022/07/22 06:49:03;;;;;;;5.78;2.95;;;;;;;30.73;38.78;99668.00;5069551;28;20063;-87
2022/07/22 06:51:29;;;;;;;5.93;4.05;;;;;;;30.47;38.10;99644.22;5053576;28;20140;-88
2022/07/22 06:53:55;;;;;;;5.40;4.05;;;;;;;30.52;37.85;99628.28;5069502;28;20096;-89
2022/07/22 06:56:20;;;;;;;5.70;3.15;;;;;;;30.98;38.54;99652.78;5069673;28;20127;-89
2022/07/22 06:58:46;;;;;;;5.05;3.65;;;;;;;31.03;38.13;99625.94;5070069;28;20124;-89
2022/07/22 07:01:11;;;;;;;6.85;3.65;;;;;;;31.41;37.63;99659.28;5071636;28;20032;-88
2022/07/22 07:03:37;;;;;;;4.90;3.42;;;;;;;31.28;37.01;99634.31;5071441;28;20032;-88
2022/07/22 07:06:04;;;;;;;6.68;3.90;;;;;;;31.70;36.29;99639.06;5070016;28;20037;-91
2022/07/22 07:08:29;;;;;;;7.28;3.75;;;;;;;31.28;38.41;99665.16;5069571;28;20117;-89
2022/07/22 07:10:55;;;;;;;5.95;2.85;;;;;;;31.23;39.14;99659.28;5070696;28;20116;-90
2022/07/22 07:13:20;;;;;;;3.53;2.42;;;;;;;31.65;38.06;99671.41;5069954;28;20064;-90
2022/07/22 07:15:46;;;;;;;5.35;3.03;;;;;;;31.82;35.37;99658.72;5070385;28;20059;-89
2022/07/22 07:18:12;;;;;;;5.55;3.33;;;;;;;31.33;38.63;99662.78;5070088;28;20520;-89
2022/07/22 07:20:37;;;;;;;6.22;3.17;;;;;;;31.95;36.72;99670.06;5072845;28;20024;-89
2022/07/22 07:23:03;;;;;;;4.55;2.80;;;;;;;32.55;35.67;99660.09;5070706;28;20063;-89
2022/07/22 07:25:31;;;;;;;5.75;3.10;;;;;;;32.58;35.08;99629.72;5070165;28;20036;-92
2022/07/22 07:27:57;;;;;;;6.18;2.70;;;;;;;33.06;33.81;99630.00;5069783;28;20525;-91
2022/07/22 07:30:23;;;;;;;4.30;2.92;;;;;;;32.86;33.60;99646.75;5071148;28;20052;-89
2022/07/22 07:32:48;;;;;;;8.38;4.18;;;;;;;32.72;34.42;99652.84;5071076;28;20028;-90
2022/07/22 07:35:14;;;;;;;4.50;3.22;;;;;;;32.41;35.85;99642.47;5071336;28;20051;-89
2022/07/22 07:37:40;;;;;;;6.13;3.58;;;;;;;32.06;35.42;99631.59;5069575;28;20029;-91
2022/07/22 07:40:06;;;;;;;6.32;3.33;;;;;;;32.93;35.38;99644.19;5069734;28;20032;-92
2022/07/22 08:41:43;;;;;;;8.93;5.13;;;;;;;34.95;32.83;99652.22;4837857;29;20061;-94
2022/07/22 08:45:04;;;;;;;6.82;4.53;;;;;;;35.26;29.62;99598.41;4891473;29;20830;-92
2022/07/22 08:47:29;;;;;;;5.38;3.55;;;;;;;35.35;30.93;99594.53;4843666;29;20046;-89
2022/07/22 08:49:55;;;;;;;4.07;2.75;;;;;;;35.91;31.10;99664.63;4930361;29;20130;-89
2022/07/22 08:52:26;;;;;;;4.72;3.03;;;;;;;34.77;30.86;99597.75;4930733;29;20087;-91
2022/07/22 08:54:55;;;;;;;5.13;3.45;;;;;;;35.17;31.56;99600.31;4930799;29;20031;-90
2022/07/22 08:57:21;;;;;;;4.68;3.38;;;;;;;35.34;30.46;99633.94;4931224;29;20035;-92
2022/07/22 08:59:55;;;;;;;7.03;5.82;;;;;;;36.08;29.04;99624.09;4932007;29;20083;-89
2022/07/22 09:02:22;;;;;;;7.60;5.53;;;;;;;36.77;30.08;99629.22;4915197;29;20040;-90
2022/07/22 09:04:54;;;;;;;5.30;3.92;;;;;;;36.83;29.24;99611.94;4915174;29;20123;-89
2022/07/22 09:07:40;;;;;;;8.45;4.50;;;;;;;36.36;29.30;99624.28;4931711;29;20032;-89
2022/07/22 09:10:09;;;;;;;6.20;4.50;;;;;;;36.15;28.95;99623.16;4931697;29;20031;-90
2022/07/22 09:12:51;;;;;;;8.05;4.45;;;;;;;35.81;31.40;99601.81;4930668;29;20032;-89
2022/07/22 09:15:37;;;;;;;6.50;4.20;;;;;;;35.65;28.07;99600.91;4914226;29;20190;-91
2022/07/22 09:18:05;;;;;;;4.72;3.40;;;;;;;35.68;30.18;99613.38;4930729;29;20411;-89
2022/07/22 09:20:32;;;;;;;6.78;3.38;;;;;;;35.67;29.48;99601.56;4914707;29;20056;-89
2022/07/22 09:22:57;;;;;;;6.50;4.35;;;;;;;35.66;28.95;99610.81;4914503;29;20028;-90
2022/07/22 09:25:27;;;;;;;5.85;3.65;;;;;;;35.82;31.76;99651.00;4913977;29;20050;-91
2022/07/22 09:28:11;;;;;;;6.22;3.45;;;;;;;35.99;31.43;99599.53;4931426;29;20510;-92
2022/07/22 09:30:39;;;;;;;5.88;3.60;;;;;;;36.46;26.79;99578.16;4930235;29;20048;-88
2022/07/22 09:33:07;;;;;;;5.47;3.60;;;;;;;36.13;27.19;99584.06;4932078;29;20490;-89
2022/07/22 09:35:32;;;;;;;4.85;3.80;;;;;;;35.80;27.73;99595.44;4915116;29;20032;-89
2022/07/22 09:38:04;;;;;;;8.20;3.92;;;;;;;35.36;28.13;99612.69;4930955;29;20035;-88
2022/07/22 09:40:32;;;;;;;7.45;4.60;;;;;;;35.62;28.64;99592.19;4912498;29;20044;-90
2022/07/22 09:43:00;;;;;;;4.05;3.00;;;;;;;35.84;30.33;99602.25;4912242;29;20072;-90
2022/07/22 09:45:53;;;;;;;6.00;3.78;;;;;;;35.70;29.14;99607.72;4898190;29;20510;-94
2022/07/22 09:48:26;;;;;;;4.82;3.13;;;;;;;35.87;30.38;99616.63;4913941;29;20036;-93
2022/07/22 09:50:54;;;;;;;6.25;3.55;;;;;;;35.93;29.50;99552.75;4914351;29;20082;-90
2022/07/22 09:53:23;;;;;;;4.78;3.55;;;;;;;35.95;27.45;99600.94;4912597;29;20568;-90
2022/07/22 09:55:48;;;;;;;4.93;3.22;;;;;;;36.00;27.41;99595.72;4931368;29;20032;-89
2022/07/22 09:58:14;;;;;;;4.47;2.95;;;;;;;35.65;27.53;99602.78;4941341;29;20050;-85
2022/07/22 10:00:41;;;;;;;3.85;3.30;;;;;;;35.60;28.03;99589.63;4938030;29;20035;-88
2022/07/22 10:03:10;;;;;;;8.40;3.65;;;;;;;35.75;27.25;99555.88;4916949;29;20051;-88
2022/07/22 10:05:41;;;;;;;5.75;3.83;;;;;;;35.68;27.99;99585.94;4933128;29;20095;-87
2022/07/22 10:08:08;;;;;;;5.63;3.55;;;;;;;35.55;28.12;99621.44;4932848;29;20095;-89
2022/07/22 10:10:35;;;;;;;5.07;3.22;;;;;;;35.73;29.86;99574.41;4916157;29;20410;-88
2022/07/22 10:13:03;;;;;;;5.93;3.13;;;;;;;36.49;26.95;99585.16;4916410;29;20040;-87
2022/07/22 10:15:31;;;;;;;8.57;4.80;;;;;;;36.80;27.65;99579.38;4932942;29;20118;-88
2022/07/22 10:18:00;;;;;;;5.82;3.72;;;;;;;36.39;26.90;99566.22;4933625;29;20175;-91
2022/07/22 10:20:27;;;;;;;5.28;3.60;;;;;;;36.84;27.34;99594.44;4933658;29;20497;-90
2022/07/22 10:22:58;;;;;;;6.20;4.22;;;;;;;37.25;25.59;99555.25;4916033;29;20036;-87
2022/07/22 10:25:26;;;;;;;5.82;4.65;;;;;;;37.69;25.72;99577.09;4933856;29;20059;-90
2022/07/22 10:28:04;;;;;;;5.97;4.20;;;;;;;38.14;26.63;99559.16;4934732;29;20047;-89
2022/07/22 10:30:33;;;;;;;4.95;3.65;;;;;;;37.91;25.51;99598.00;4915751;29;20127;-88
2022/07/22 10:33:09;;;;;;;7.07;4.53;;;;;;;37.74;25.21;99558.97;4933110;29;20035;-87
2022/07/22 10:36:00;;;;;;;6.45;2.75;;;;;;;37.78;25.40;99582.25;4934620;29;20027;-92
2022/07/22 10:38:27;;;;;;;5.18;3.35;;;;;;;37.43;25.18;99553.88;4932375;29;20042;-90
2022/07/22 10:40:58;;;;;;;5.57;3.42;;;;;;;37.09;25.56;99536.25;4916974;29;20179;-88
2022/07/22 10:43:28;;;;;;;8.52;3.47;;;;;;;37.48;25.33;99602.78;4932775;29;20035;-88
2022/07/22 10:45:59;;;;;;;6.25;3.95;;;;;;;37.35;25.82;99576.03;4915797;29;20517;-91
2022/07/22 10:48:37;;;;;;;6.68;3.95;;;;;;;37.60;24.93;99595.66;4935550;29;20032;-90
2022/07/22 10:51:11;;;;;;;5.20;3.67;;;;;;;37.35;24.50;99534.78;4934025;29;20491;-90
2022/07/22 10:53:56;;;;;;;10.93;4.13;;;;;;;37.44;24.60;99588.59;4933216;29;20036;-89
2022/07/22 10:56:26;;;;;;;5.00;3.17;;;;;;;37.49;25.78;99572.31;4917606;29;20039;-93
2022/07/22 10:59:14;;;;;;;4.88;3.03;;;;;;;37.65;24.26;99562.91;4917302;29;20028;-92
2022/07/22 11:01:46;;;;;;;5.82;3.35;;;;;;;37.33;24.10;99551.50;4917251;29;20046;-93
2022/07/22 11:04:22;;;;;;;7.65;3.80;;;;;;;37.51;24.47;99553.72;4933752;29;20031;-91
2022/07/22 11:06:50;;;;;;;5.93;3.10;;;;;;;37.04;24.22;99541.50;4932716;29;20043;-88
2022/07/22 11:09:25;;;;;;;4.53;3.25;;;;;;;36.92;24.62;99522.81;4932850;29;20031;-92
2022/07/22 11:11:52;;;;;;;;;;;;;;;37.16;25.34;99577.56;4916750;29;20542;-91
2022/07/22 11:14:30;;;;;;;5.03;2.72;;;;;;;37.11;24.48;99528.69;4933238;29;19918;-89
2022/07/22 11:17:08;;;;;;;6.13;4.28;;;;;;;37.50;24.18;99553.94;4933455;29;20110;-89
2022/07/22 11:19:37;;;;;;;4.53;2.60;;;;;;;37.33;24.71;99532.25;4915723;29;20041;-89
2022/07/22 11:22:14;;;;;;;9.50;4.35;;;;;;;37.46;25.65;99536.97;4915790;29;20501;-88
2022/07/22 11:24:40;;;;;;;5.25;3.33;;;;;;;37.69;23.80;99516.56;4932400;29;20470;-88
2022/07/22 11:27:13;;;;;;;5.95;3.65;;;;;;;37.49;23.69;99511.81;4931718;29;20042;-88
2022/07/22 11:29:44;;;;;;;4.35;3.13;;;;;;;37.61;23.81;99518.44;4932753;29;20962;-91
2022/07/22 11:32:27;;;;;;;2.67;2.00;;;;;;;37.71;23.60;99500.72;4915385;29;20032;-92
2022/07/22 11:34:53;;;;;;;4.03;2.08;;;;;;;37.37;23.85;99527.19;4932790;29;20426;-88
2022/07/22 11:37:26;;;;;;;4.05;2.42;;;;;;;37.09;24.14;99506.88;4932983;29;20032;-89
2022/07/22 11:39:59;;;;;;;4.07;2.22;;;;;;;37.45;23.87;99549.88;4931953;29;20039;-88
2022/07/22 11:42:25;;;;;;;7.55;4.13;;;;;;;37.40;24.28;99516.66;4931456;29;20031;-88
2022/07/22 11:44:51;;;;;;;4.18;2.97;;;;;;;36.88;24.75;99516.03;4914417;29;20039;-89
2022/07/22 11:47:18;;;;;;;5.35;2.95;;;;;;;36.84;23.52;99528.47;4931987;29;20031;-90
2022/07/22 11:49:45;;;;;;;4.93;3.45;;;;;;;36.77;24.41;99486.34;4932752;29;20066;-90
2022/07/22 11:52:14;;;;;;;3.53;2.15;;;;;;;37.22;24.52;99539.16;4933830;29;20043;-87
2022/07/22 11:54:42;;;;;;;3.55;2.38;;;;;;;36.87;24.24;99502.47;4932701;29;20038;-88
2022/07/22 11:57:07;;;;;;;7.43;3.42;;;;;;;37.01;23.83;99497.94;4932445;29;20031;-87
2022/07/22 11:59:35;;;;;;;6.53;2.42;;;;;;;37.21;23.95;99503.56;4932461;29;20040;-89
2022/07/22 12:02:02;;;;;;;4.28;3.67;;;;;;;37.37;22.79;99499.69;4915452;29;20172;-89
2022/07/22 12:04:29;;;;;;;4.10;2.45;;;;;;;37.41;22.54;99521.06;4914022;29;20394;-88
2022/07/22 12:06:57;;;;;;;3.38;2.28;;;;;;;37.76;23.91;99545.84;4932518;29;20035;-88
2022/07/22 12:09:24;;;;;;;6.90;2.47;;;;;;;38.10;21.86;99546.00;4915069;29;20122;-86
2022/07/22 12:11:52;;;;;;;2.65;2.15;;;;;;;38.14;21.46;99522.50;4932483;29;20459;-89
2022/07/22 12:14:24;;;;;;;3.60;1.80;;;;;;;38.38;21.39;99517.53;4931966;29;20557;-88
2022/07/22 12:16:59;;;;;;;6.75;3.10;;;;;;;38.37;21.38;99458.81;4932631;29;20027;-89
2022/07/22 12:19:29;;;;;;;4.78;2.47;;;;;;;38.39;22.58;99492.53;4915375;29;20127;-87
2022/07/22 12:22:18;;;;;;;5.60;2.90;;;;;;;38.40;22.26;99474.09;4932256;29;20128;-91
2022/07/22 12:24:58;;;;;;;3.72;1.95;;;;;;;38.27;22.99;99453.72;4932527;29;20035;-94
2022/07/22 12:27:26;;;;;;;4.78;2.13;;;;;;;38.43;21.94;99476.41;4915767;29;20031;-91
2022/07/22 12:29:52;;;;;;;2.70;1.75;;;;;;;38.37;21.84;99463.50;4932725;29;20066;-88
2022/07/22 12:32:23;;;;;;;4.53;2.10;;;;;;;38.76;21.24;99525.22;4932919;29;20406;-90
2022/07/22 12:34:57;;;;;;;4.97;4.10;;;;;;;38.64;20.22;99525.00;4931953;29;20057;-92